sensor_id;sensor_type;location;lat;lon;timestamp;pressure;altitude;pressure_sealevel;temperature;humidity
21956;BME280;11142;49.930;8.606;2022-09-12T00:01:14;100220.22;;;14.05;100.00
21956;BME280;11142;49.930;8.606;2022-09-12T00:03:43;100220.78;;;13.97;100.00
21956;BME280;11142;49.930;8.606;2022-09-12T00:06:14;100216.19;;;14.01;100.00
21956;BME280;11142;49.930;8.606;2022-09-12T00:08:50;100212.53;;;13.68;100.00
21956;BME280;11142;49.930;8.606;2022-09-12T00:11:18;100223.25;;;13.88;100.00
21956;BME280;11142;49.930;8.606;2022-09-12T00:13:46;100225.78;;;14.11;100.00
21956;BME280;11142;49.930;8.606;2022-09-12T00:16:15;100214.81;;;14.30;100.00
21956;BME280;11142;49.930;8.606;2022-09-12T00:18:45;100213.16;;;14.40;100.00
21956;BME280;11142;49.930;8.606;2022-09-12T00:21:14;100210.91;;;14.35;100.00
21956;BME280;11142;49.930;8.606;2022-09-12T00:23:43;100217.28;;;14.31;100.00
21956;BME280;11142;49.930;8.606;2022-09-12T00:26:14;100215.41;;;14.45;100.00
21956;BME280;11142;49.930;8.606;2022-09-12T00:28:43;100208.06;;;14.61;100.00
21956;BME280;11142;49.930;8.606;2022-09-12T00:31:13;100206.88;;;14.65;100.00
21956;BME280;11142;49.930;8.606;2022-09-12T00:33:44;100209.94;;;14.70;100.00
21956;BME280;11142;49.930;8.606;2022-09-12T00:36:13;100209.94;;;14.70;100.00
21956;BME280;11142;49.930;8.606;2022-09-12T00:38:43;100208.28;;;14.47;100.00
21956;BME280;11142;49.930;8.606;2022-09-12T00:41:16;100198.28;;;14.07;100.00
21956;BME280;11142;49.930;8.606;2022-09-12T00:43:45;100203.56;;;13.83;100.00
21956;BME280;11142;49.930;8.606;2022-09-12T00:46:29;100205.03;;;13.64;100.00
21956;BME280;11142;49.930;8.606;2022-09-12T00:49:03;100206.75;;;13.76;100.00
21956;BME280;11142;49.930;8.606;2022-09-12T00:51:34;100196.94;;;13.91;100.00
21956;BME280;11142;49.930;8.606;2022-09-12T00:54:05;100192.09;;;13.97;100.00
21956;BME280;11142;49.930;8.606;2022-09-12T00:56:37;100193.66;;;14.11;100.00
21956;BME280;11142;49.930;8.606;2022-09-12T00:59:12;100187.59;;;14.21;100.00
21956;BME280;11142;49.930;8.606;2022-09-12T01:01:43;100193.19;;;14.28;100.00
21956;BME280;11142;49.930;8.606;2022-09-12T01:04:13;100198.06;;;14.32;100.00
21956;BME280;11142;49.930;8.606;2022-09-12T01:06:43;100200.78;;;14.31;100.00
21956;BME280;11142;49.930;8.606;2022-09-12T01:09:18;100202.25;;;14.35;100.00
21956;BME280;11142;49.930;8.606;2022-09-12T01:11:52;100200.19;;;14.27;100.00
21956;BME280;11142;49.930;8.606;2022-09-12T01:14:20;100191.53;;;14.16;100.00
21956;BME280;11142;49.930;8.606;2022-09-12T01:16:50;100194.34;;;13.91;100.00
21956;BME280;11142;49.930;8.606;2022-09-12T01:19:45;100191.78;;;13.67;100.00
21956;BME280;11142;49.930;8.606;2022-09-12T01:22:29;100195.28;;;13.55;100.00
21956;BME280;11142;49.930;8.606;2022-09-12T01:25:09;100192.19;;;13.50;100.00
21956;BME280;11142;49.930;8.606;2022-09-12T01:27:56;100186.59;;;13.43;100.00
21956;BME280;11142;49.930;8.606;2022-09-12T01:30:51;100182.00;;;13.47;100.00
21956;BME280;11142;49.930;8.606;2022-09-12T01:33:33;100186.06;;;13.62;100.00
21956;BME280;11142;49.930;8.606;2022-09-12T01:36:15;100177.22;;;13.75;100.00
21956;BME280;11142;49.930;8.606;2022-09-12T01:38:53;100173.25;;;14.05;100.00
21956;BME280;11142;49.930;8.606;2022-09-12T01:41:28;100173.13;;;14.06;100.00
21956;BME280;11142;49.930;8.606;2022-09-12T01:44:01;100169.56;;;14.07;100.00
21956;BME280;11142;49.930;8.606;2022-09-12T01:46:38;100177.28;;;14.09;100.00
21956;BME280;11142;49.930;8.606;2022-09-12T01:49:14;100181.19;;;14.03;100.00
21956;BME280;11142;49.930;8.606;2022-09-12T01:51:50;100175.84;;;13.94;100.00
21956;BME280;11142;49.930;8.606;2022-09-12T01:54:24;100170.25;;;13.87;100.00
21956;BME280;11142;49.930;8.606;2022-09-12T01:56:54;100167.31;;;13.92;100.00
21956;BME280;11142;49.930;8.606;2022-09-12T01:59:26;100171.09;;;13.88;100.00
21956;BME280;11142;49.930;8.606;2022-09-12T02:02:02;100177.47;;;13.83;100.00
21956;BME280;11142;49.930;8.606;2022-09-12T02:04:35;100166.34;;;13.81;100.00
21956;BME280;11142;49.930;8.606;2022-09-12T02:07:09;100163.41;;;13.97;100.00
21956;BME280;11142;49.930;8.606;2022-09-12T02:09:44;100163.38;;;13.86;100.00
21956;BME280;11142;49.930;8.606;2022-09-12T02:12:16;100163.53;;;13.50;100.00
21956;BME280;11142;49.930;8.606;2022-09-12T02:14:50;100160.91;;;13.15;100.00
21956;BME280;11142;49.930;8.606;2022-09-12T02:17:22;100152.97;;;13.04;100.00
21956;BME280;11142;49.930;8.606;2022-09-12T02:19:54;100157.41;;;13.27;100.00
21956;BME280;11142;49.930;8.606;2022-09-12T02:22:26;100169.97;;;13.33;100.00
21956;BME280;11142;49.930;8.606;2022-09-12T02:24:58;100159.97;;;13.16;100.00
21956;BME280;11142;49.930;8.606;2022-09-12T02:27:29;100162.84;;;12.88;100.00
21956;BME280;11142;49.930;8.606;2022-09-12T02:30:00;100171.09;;;12.82;100.00
21956;BME280;11142;49.930;8.606;2022-09-12T02:32:35;100165.22;;;12.67;100.00
21956;BME280;11142;49.930;8.606;2022-09-12T02:35:06;100165.63;;;12.73;100.00
21956;BME280;11142;49.930;8.606;2022-09-12T02:37:47;100164.47;;;13.01;100.00
21956;BME280;11142;49.930;8.606;2022-09-12T02:40:18;100152.00;;;12.94;100.00
21956;BME280;11142;49.930;8.606;2022-09-12T02:42:46;100160.91;;;13.15;100.00
21956;BME280;11142;49.930;8.606;2022-09-12T02:45:15;100158.34;;;13.26;100.00
21956;BME280;11142;49.930;8.606;2022-09-12T02:47:47;100159.22;;;13.38;100.00
21956;BME280;11142;49.930;8.606;2022-09-12T02:50:16;100163.16;;;13.43;100.00
21956;BME280;11142;49.930;8.606;2022-09-12T02:52:44;100161.53;;;13.53;100.00
21956;BME280;11142;49.930;8.606;2022-09-12T02:55:13;100160.56;;;13.54;100.00
21956;BME280;11142;49.930;8.606;2022-09-12T02:57:42;100160.09;;;13.49;100.00
21956;BME280;11142;49.930;8.606;2022-09-12T03:00:11;100156.63;;;13.49;100.00
21956;BME280;11142;49.930;8.606;2022-09-12T03:02:57;100157.00;;;13.55;100.00
21956;BME280;11142;49.930;8.606;2022-09-12T03:05:34;100154.50;;;13.43;100.00
21956;BME280;11142;49.930;8.606;2022-09-12T03:08:45;100154.50;;;13.43;100.00
21956;BME280;11142;49.930;8.606;2022-09-12T03:11:37;100156.78;;;13.23;100.00
21956;BME280;11142;49.930;8.606;2022-09-12T03:14:20;100155.47;;;13.18;100.00
21956;BME280;11142;49.930;8.606;2022-09-12T03:16:57;100154.28;;;12.98;100.00
21956;BME280;11142;49.930;8.606;2022-09-12T03:19:37;100157.81;;;12.97;100.00
21956;BME280;11142;49.930;8.606;2022-09-12T03:22:12;100156.66;;;13.01;100.00
21956;BME280;11142;49.930;8.606;2022-09-12T03:24:49;100165.66;;;13.21;100.00
21956;BME280;11142;49.930;8.606;2022-09-12T03:27:21;100164.16;;;13.29;100.00
21956;BME280;11142;49.930;8.606;2022-09-12T03:29:52;100155.72;;;13.26;100.00
21956;BME280;11142;49.930;8.606;2022-09-12T03:32:39;100144.22;;;13.17;100.00
21956;BME280;11142;49.930;8.606;2022-09-12T03:35:08;100146.34;;;13.12;100.00
21956;BME280;11142;49.930;8.606;2022-09-12T03:37:37;100151.31;;;13.15;100.00
21956;BME280;11142;49.930;8.606;2022-09-12T03:40:06;100153.56;;;13.20;100.00
21956;BME280;11142;49.930;8.606;2022-09-12T03:42:35;100152.50;;;13.22;100.00
21956;BME280;11142;49.930;8.606;2022-09-12T03:45:03;100149.81;;;13.35;100.00
21956;BME280;11142;49.930;8.606;2022-09-12T03:47:32;100154.63;;;13.41;100.00
21956;BME280;11142;49.930;8.606;2022-09-12T03:50:00;100150.19;;;13.30;100.00
21956;BME280;11142;49.930;8.606;2022-09-12T03:52:29;100146.56;;;13.09;100.00
21956;BME280;11142;49.930;8.606;2022-09-12T03:54:57;100146.75;;;13.06;100.00
21956;BME280;11142;49.930;8.606;2022-09-12T03:57:25;100145.53;;;12.99;100.00
21956;BME280;11142;49.930;8.606;2022-09-12T03:59:53;100146.94;;;13.03;100.00
21956;BME280;11142;49.930;8.606;2022-09-12T04:02:22;100144.25;;;13.05;100.00
21956;BME280;11142;49.930;8.606;2022-09-12T04:04:51;100138.69;;;12.86;100.00
21956;BME280;11142;49.930;8.606;2022-09-12T04:07:19;100144.56;;;12.76;100.00
21956;BME280;11142;49.930;8.606;2022-09-12T04:09:48;100145.66;;;12.61;100.00
21956;BME280;11142;49.930;8.606;2022-09-12T04:12:16;100135.50;;;12.46;100.00
21956;BME280;11142;49.930;8.606;2022-09-12T04:14:44;100143.44;;;12.32;100.00
21956;BME280;11142;49.930;8.606;2022-09-12T04:17:14;100140.00;;;12.31;100.00
21956;BME280;11142;49.930;8.606;2022-09-12T04:19:45;100141.97;;;12.27;100.00
21956;BME280;11142;49.930;8.606;2022-09-12T04:22:13;100138.22;;;12.32;100.00
21956;BME280;11142;49.930;8.606;2022-09-12T04:24:40;100144.69;;;12.26;100.00
21956;BME280;11142;49.930;8.606;2022-09-12T04:27:10;100143.44;;;12.19;100.00
21956;BME280;11142;49.930;8.606;2022-09-12T04:29:38;100147.19;;;12.15;100.00
21956;BME280;11142;49.930;8.606;2022-09-12T04:32:06;100149.78;;;12.15;100.00
21956;BME280;11142;49.930;8.606;2022-09-12T04:34:33;100147.41;;;12.12;100.00
21956;BME280;11142;49.930;8.606;2022-09-12T04:37:02;100139.69;;;12.23;100.00
21956;BME280;11142;49.930;8.606;2022-09-12T04:39:30;100155.28;;;12.48;100.00
21956;BME280;11142;49.930;8.606;2022-09-12T04:41:58;100148.34;;;12.60;100.00
21956;BME280;11142;49.930;8.606;2022-09-12T04:44:27;100149.84;;;12.51;100.00
21956;BME280;11142;49.930;8.606;2022-09-12T04:46:56;100153.97;;;12.66;100.00
21956;BME280;11142;49.930;8.606;2022-09-12T04:49:24;100157.91;;;12.72;100.00
21956;BME280;11142;49.930;8.606;2022-09-12T04:51:52;100154.53;;;12.83;100.00
21956;BME280;11142;49.930;8.606;2022-09-12T04:54:21;100150.78;;;12.87;100.00
21956;BME280;11142;49.930;8.606;2022-09-12T04:56:50;100153.47;;;12.85;100.00
21956;BME280;11142;49.930;8.606;2022-09-12T04:59:19;100149.34;;;12.83;100.00
21956;BME280;11142;49.930;8.606;2022-09-12T05:01:49;100147.72;;;12.93;100.00
21956;BME280;11142;49.930;8.606;2022-09-12T05:04:18;100149.25;;;12.84;100.00
21956;BME280;11142;49.930;8.606;2022-09-12T05:06:48;100148.72;;;12.79;100.00
21956;BME280;11142;49.930;8.606;2022-09-12T05:09:16;100149.28;;;12.71;100.00
21956;BME280;11142;49.930;8.606;2022-09-12T05:11:44;100144.88;;;12.72;100.00
21956;BME280;11142;49.930;8.606;2022-09-12T05:14:30;100148.13;;;12.63;100.00
21956;BME280;11142;49.930;8.606;2022-09-12T05:17:02;100147.31;;;12.62;100.00
21956;BME280;11142;49.930;8.606;2022-09-12T05:19:32;100150.06;;;12.48;100.00
21956;BME280;11142;49.930;8.606;2022-09-12T05:22:00;100154.81;;;12.67;100.00
21956;BME280;11142;49.930;8.606;2022-09-12T05:24:30;100166.50;;;12.61;100.00
21956;BME280;11142;49.930;8.606;2022-09-12T05:26:59;100161.34;;;12.72;100.00
21956;BME280;11142;49.930;8.606;2022-09-12T05:29:29;100159.75;;;12.83;100.00
21956;BME280;11142;49.930;8.606;2022-09-12T05:31:57;100153.88;;;12.92;100.00
21956;BME280;11142;49.930;8.606;2022-09-12T05:34:29;100163.00;;;13.10;100.00
21956;BME280;11142;49.930;8.606;2022-09-12T05:36:58;100160.78;;;13.16;100.00
21956;BME280;11142;49.930;8.606;2022-09-12T05:39:25;100170.50;;;13.49;100.00
21956;BME280;11142;49.930;8.606;2022-09-12T05:41:54;100167.59;;;13.65;100.00
21956;BME280;11142;49.930;8.606;2022-09-12T05:44:25;100177.22;;;13.75;100.00
21956;BME280;11142;49.930;8.606;2022-09-12T05:46:54;100183.22;;;13.54;100.00
21956;BME280;11142;49.930;8.606;2022-09-12T05:49:22;100174.72;;;13.28;100.00
21956;BME280;11142;49.930;8.606;2022-09-12T05:51:52;100170.97;;;13.19;100.00
21956;BME280;11142;49.930;8.606;2022-09-12T05:54:20;100171.78;;;13.09;100.00
21956;BME280;11142;49.930;8.606;2022-09-12T05:56:48;100172.06;;;13.04;100.00
21956;BME280;11142;49.930;8.606;2022-09-12T05:59:18;100170.97;;;13.19;100.00
21956;BME280;11142;49.930;8.606;2022-09-12T06:01:48;100176.63;;;13.37;100.00
21956;BME280;11142;49.930;8.606;2022-09-12T06:04:16;100172.47;;;13.69;100.00
21956;BME280;11142;49.930;8.606;2022-09-12T06:06:45;100177.59;;;13.93;100.00
21956;BME280;11142;49.930;8.606;2022-09-12T06:09:16;100178.69;;;13.91;100.00
21956;BME280;11142;49.930;8.606;2022-09-12T06:11:45;100179.38;;;13.93;100.00
21956;BME280;11142;49.930;8.606;2022-09-12T06:14:15;100174.66;;;14.09;100.00
21956;BME280;11142;49.930;8.606;2022-09-12T06:16:43;100177.66;;;14.26;100.00
21956;BME280;11142;49.930;8.606;2022-09-12T06:19:14;100173.50;;;14.46;100.00
21956;BME280;11142;49.930;8.606;2022-09-12T06:21:43;100168.75;;;14.62;100.00
21956;BME280;11142;49.930;8.606;2022-09-12T06:24:11;100164.66;;;14.92;100.00
21956;BME280;11142;49.930;8.606;2022-09-12T06:26:41;100167.56;;;14.66;100.00
21956;BME280;11142;49.930;8.606;2022-09-12T06:29:10;100169.34;;;14.66;100.00
21956;BME280;11142;49.930;8.606;2022-09-12T06:31:41;100167.53;;;15.20;100.00
21956;BME280;11142;49.930;8.606;2022-09-12T06:34:11;100160.63;;;15.62;98.42
21956;BME280;11142;49.930;8.606;2022-09-12T06:36:42;100173.81;;;15.81;96.29
21956;BME280;11142;49.930;8.606;2022-09-12T06:39:12;100170.75;;;15.24;98.13
21956;BME280;11142;49.930;8.606;2022-09-12T06:41:41;100173.22;;;15.25;98.97
21956;BME280;11142;49.930;8.606;2022-09-12T06:44:12;100166.22;;;15.78;97.63
21956;BME280;11142;49.930;8.606;2022-09-12T06:46:42;100166.34;;;15.56;96.39
21956;BME280;11142;49.930;8.606;2022-09-12T06:49:10;100152.94;;;16.21;94.59
21956;BME280;11142;49.930;8.606;2022-09-12T06:51:39;100155.63;;;16.61;91.53
21956;BME280;11142;49.930;8.606;2022-09-12T06:54:11;100157.84;;;16.85;89.79
21956;BME280;11142;49.930;8.606;2022-09-12T06:56:41;100159.13;;;17.29;88.70
21956;BME280;11142;49.930;8.606;2022-09-12T06:59:09;100151.69;;;17.53;86.57
21956;BME280;11142;49.930;8.606;2022-09-12T07:01:40;100145.44;;;17.73;85.17
21956;BME280;11142;49.930;8.606;2022-09-12T07:04:09;100153.50;;;17.72;84.76
21956;BME280;11142;49.930;8.606;2022-09-12T07:06:39;100144.75;;;17.81;84.50
21956;BME280;11142;49.930;8.606;2022-09-12T07:09:10;100146.84;;;17.77;84.42
21956;BME280;11142;49.930;8.606;2022-09-12T07:11:40;100149.19;;;17.80;84.62
21956;BME280;11142;49.930;8.606;2022-09-12T07:14:11;100155.84;;;18.48;83.64
21956;BME280;11142;49.930;8.606;2022-09-12T07:16:40;100161.84;;;18.95;79.37
21956;BME280;11142;49.930;8.606;2022-09-12T07:19:09;100162.84;;;18.67;80.69
21956;BME280;11142;49.930;8.606;2022-09-12T07:21:37;100166.38;;;19.21;79.26
21956;BME280;11142;49.930;8.606;2022-09-12T07:24:08;100162.06;;;19.20;78.50
21956;BME280;11142;49.930;8.606;2022-09-12T07:26:39;100159.00;;;19.85;75.52
21956;BME280;11142;49.930;8.606;2022-09-12T07:29:12;100160.03;;;19.92;75.04
21956;BME280;11142;49.930;8.606;2022-09-12T07:32:01;100164.75;;;20.32;73.87
21956;BME280;11142;49.930;8.606;2022-09-12T07:34:29;100159.06;;;20.53;73.47
21956;BME280;11142;49.930;8.606;2022-09-12T07:36:57;100160.66;;;20.88;72.44
21956;BME280;11142;49.930;8.606;2022-09-12T07:39:25;100159.63;;;21.31;70.74
21956;BME280;11142;49.930;8.606;2022-09-12T07:41:54;100160.88;;;20.52;73.36
21956;BME280;11142;49.930;8.606;2022-09-12T07:44:25;100161.25;;;21.24;71.94
21956;BME280;11142;49.930;8.606;2022-09-12T07:46:53;100155.22;;;20.97;70.60
21956;BME280;11142;49.930;8.606;2022-09-12T07:49:21;100157.44;;;22.07;68.94
21956;BME280;11142;49.930;8.606;2022-09-12T07:51:50;100153.16;;;22.84;65.67
21956;BME280;11142;49.930;8.606;2022-09-12T07:54:19;100157.56;;;23.45;61.64
21956;BME280;11142;49.930;8.606;2022-09-12T07:56:47;100158.97;;;23.33;62.30
21956;BME280;11142;49.930;8.606;2022-09-12T07:59:15;100158.97;;;23.55;60.18
21956;BME280;11142;49.930;8.606;2022-09-12T08:02:05;100159.81;;;23.56;59.83
21956;BME280;11142;49.930;8.606;2022-09-12T08:04:33;100161.78;;;23.54;60.26
21956;BME280;11142;49.930;8.606;2022-09-12T08:07:02;100158.44;;;23.14;61.03
21956;BME280;11142;49.930;8.606;2022-09-12T08:09:32;100158.28;;;22.85;62.05
21956;BME280;11142;49.930;8.606;2022-09-12T08:12:00;100161.25;;;22.43;64.68
21956;BME280;11142;49.930;8.606;2022-09-12T08:14:28;100159.72;;;22.57;63.96
21956;BME280;11142;49.930;8.606;2022-09-12T08:16:57;100164.41;;;22.47;64.50
21956;BME280;11142;49.930;8.606;2022-09-12T08:19:26;100174.94;;;21.76;65.83
21956;BME280;11142;49.930;8.606;2022-09-12T08:21:54;100166.22;;;21.91;65.42
21956;BME280;11142;49.930;8.606;2022-09-12T08:24:22;100168.16;;;22.05;65.02
21956;BME280;11142;49.930;8.606;2022-09-12T08:26:50;100161.53;;;22.56;64.29
21956;BME280;11142;49.930;8.606;2022-09-12T08:29:18;100161.56;;;22.09;64.30
21956;BME280;11142;49.930;8.606;2022-09-12T08:31:47;100163.22;;;21.13;68.91
21956;BME280;11142;49.930;8.606;2022-09-12T08:34:19;100154.63;;;20.61;71.19
21956;BME280;11142;49.930;8.606;2022-09-12T08:36:49;100155.34;;;20.72;72.08
21956;BME280;11142;49.930;8.606;2022-09-12T08:39:17;100158.78;;;20.64;71.11
21956;BME280;11142;49.930;8.606;2022-09-12T08:41:46;100154.31;;;21.23;72.03
21956;BME280;11142;49.930;8.606;2022-09-12T08:44:30;100153.38;;;22.35;66.25
21956;BME280;11142;49.930;8.606;2022-09-12T08:47:16;100156.06;;;22.66;64.13
21956;BME280;11142;49.930;8.606;2022-09-12T08:49:53;100158.94;;;22.87;62.95
21956;BME280;11142;49.930;8.606;2022-09-12T08:52:28;100164.19;;;22.95;62.24
21956;BME280;11142;49.930;8.606;2022-09-12T08:54:57;100162.78;;;23.30;60.40
21956;BME280;11142;49.930;8.606;2022-09-12T08:57:27;100174.16;;;23.61;59.98
21956;BME280;11142;49.930;8.606;2022-09-12T08:59:55;100169.97;;;23.44;59.18
21956;BME280;11142;49.930;8.606;2022-09-12T09:02:42;100159.94;;;22.39;63.02
21956;BME280;11142;49.930;8.606;2022-09-12T09:05:18;100164.81;;;22.97;61.84
21956;BME280;11142;49.930;8.606;2022-09-12T09:08:05;100164.38;;;23.39;60.69
21956;BME280;11142;49.930;8.606;2022-09-12T09:10:46;100154.84;;;24.99;57.10
21956;BME280;11142;49.930;8.606;2022-09-12T09:13:25;100158.28;;;25.78;53.56
21956;BME280;11142;49.930;8.606;2022-09-12T09:16:19;100159.84;;;26.28;49.86
21956;BME280;11142;49.930;8.606;2022-09-12T09:18:51;100165.38;;;26.74;49.21
21956;BME280;11142;49.930;8.606;2022-09-12T09:21:26;100158.25;;;26.81;47.52
21956;BME280;11142;49.930;8.606;2022-09-12T09:24:02;100165.16;;;26.69;49.07
21956;BME280;11142;49.930;8.606;2022-09-12T09:26:40;100163.06;;;27.25;46.35
21956;BME280;11142;49.930;8.606;2022-09-12T09:29:16;100165.75;;;27.38;46.78
21956;BME280;11142;49.930;8.606;2022-09-12T09:31:47;100162.66;;;26.67;48.50
21956;BME280;11142;49.930;8.606;2022-09-12T09:34:18;100159.97;;;27.08;48.06
21956;BME280;11142;49.930;8.606;2022-09-12T09:36:49;100155.72;;;27.53;46.49
21956;BME280;11142;49.930;8.606;2022-09-12T09:39:37;100155.72;;;28.12;43.28
21956;BME280;11142;49.930;8.606;2022-09-12T09:42:15;100152.38;;;28.04;43.53
21956;BME280;11142;49.930;8.606;2022-09-12T09:44:45;100161.03;;;27.33;44.96
21956;BME280;11142;49.930;8.606;2022-09-12T09:47:17;100154.91;;;27.66;43.34
21956;BME280;11142;49.930;8.606;2022-09-12T09:49:46;100149.31;;;28.77;42.56
21956;BME280;11142;49.930;8.606;2022-09-12T09:52:15;100150.59;;;29.62;39.70
21956;BME280;11142;49.930;8.606;2022-09-12T09:54:52;100148.09;;;29.42;38.45
21956;BME280;11142;49.930;8.606;2022-09-12T09:57:43;100144.56;;;29.17;40.02
21956;BME280;11142;49.930;8.606;2022-09-12T10:00:29;100145.06;;;30.25;36.73
21956;BME280;11142;49.930;8.606;2022-09-12T10:03:27;100146.34;;;30.59;35.09
21956;BME280;11142;49.930;8.606;2022-09-12T10:05:59;100144.34;;;30.84;34.63
21956;BME280;11142;49.930;8.606;2022-09-12T10:08:29;100145.94;;;32.26;32.60
21956;BME280;11142;49.930;8.606;2022-09-12T10:11:01;100144.25;;;31.62;31.32
21956;BME280;11142;49.930;8.606;2022-09-12T10:13:34;100134.06;;;30.81;31.88
21956;BME280;11142;49.930;8.606;2022-09-12T10:16:05;100143.22;;;30.43;34.79
21956;BME280;11142;49.930;8.606;2022-09-12T10:18:39;100148.19;;;31.82;32.81
21956;BME280;11142;49.930;8.606;2022-09-12T10:21:13;100153.31;;;32.30;32.83
21956;BME280;11142;49.930;8.606;2022-09-12T10:23:43;100151.31;;;32.26;31.71
21956;BME280;11142;49.930;8.606;2022-09-12T10:26:15;100147.06;;;32.41;32.08
21956;BME280;11142;49.930;8.606;2022-09-12T10:28:50;100145.16;;;31.55;33.68
21956;BME280;11142;49.930;8.606;2022-09-12T10:31:25;100141.63;;;33.21;31.00
21956;BME280;11142;49.930;8.606;2022-09-12T10:33:56;100138.59;;;34.01;29.98
21956;BME280;11142;49.930;8.606;2022-09-12T10:36:34;100142.16;;;35.52;27.57
21956;BME280;11142;49.930;8.606;2022-09-12T10:39:04;100131.31;;;34.61;26.80
21956;BME280;11142;49.930;8.606;2022-09-12T10:41:38;100126.75;;;34.19;27.72
21956;BME280;11142;49.930;8.606;2022-09-12T10:44:14;100118.06;;;34.87;28.00
21956;BME280;11142;49.930;8.606;2022-09-12T10:46:42;100132.09;;;37.13;24.96
21956;BME280;11142;49.930;8.606;2022-09-12T10:49:19;100130.63;;;37.87;24.57
21956;BME280;11142;49.930;8.606;2022-09-12T10:51:48;100126.38;;;37.65;24.02
21956;BME280;11142;49.930;8.606;2022-09-12T10:54:20;100126.28;;;38.06;22.69
21956;BME280;11142;49.930;8.606;2022-09-12T10:57:22;100126.69;;;38.92;22.50
21956;BME280;11142;49.930;8.606;2022-09-12T11:00:06;100130.34;;;41.01;20.89
21956;BME280;11142;49.930;8.606;2022-09-12T11:02:47;100126.41;;;40.32;21.85
21956;BME280;11142;49.930;8.606;2022-09-12T11:05:25;100119.28;;;42.30;20.03
21956;BME280;11142;49.930;8.606;2022-09-12T11:08:02;100123.09;;;42.16;19.39
21956;BME280;11142;49.930;8.606;2022-09-12T11:10:42;100102.53;;;38.47;22.24
21956;BME280;11142;49.930;8.606;2022-09-12T11:13:23;100094.41;;;37.52;23.39
21956;BME280;11142;49.930;8.606;2022-09-12T11:16:05;100095.81;;;36.17;25.41
21956;BME280;11142;49.930;8.606;2022-09-12T11:18:52;100095.78;;;37.30;23.54
21956;BME280;11142;49.930;8.606;2022-09-12T11:21:37;100110.59;;;39.63;22.42
21956;BME280;11142;49.930;8.606;2022-09-12T11:27:36;100114.56;;;40.23;21.04
21956;BME280;11142;49.930;8.606;2022-09-12T11:30:11;100113.06;;;42.52;18.72
21956;BME280;11142;49.930;8.606;2022-09-12T11:35:34;100099.41;;;39.70;22.11
21956;BME280;11142;49.930;8.606;2022-09-12T11:41:10;100070.66;;;31.16;32.11
21956;BME280;11142;49.930;8.606;2022-09-12T11:43:46;100057.16;;;31.69;31.86
21956;BME280;11142;49.930;8.606;2022-09-12T11:46:22;100061.06;;;32.01;31.91
21956;BME280;11142;49.930;8.606;2022-09-12T11:48:54;100070.84;;;35.48;27.82
21956;BME280;11142;49.930;8.606;2022-09-12T11:51:27;100082.59;;;39.63;22.96
21956;BME280;11142;49.930;8.606;2022-09-12T11:54:08;100082.16;;;42.16;19.79
21956;BME280;11142;49.930;8.606;2022-09-12T11:56:42;100084.25;;;43.04;18.51
21956;BME280;11142;49.930;8.606;2022-09-12T11:59:16;100092.16;;;44.15;17.45
21956;BME280;11142;49.930;8.606;2022-09-12T12:01:51;100080.44;;;41.06;19.95
21956;BME280;11142;49.930;8.606;2022-09-12T12:04:26;100065.16;;;40.35;20.62
21956;BME280;11142;49.930;8.606;2022-09-12T12:07:02;100069.91;;;39.82;21.83
21956;BME280;11142;49.930;8.606;2022-09-12T12:09:32;100072.50;;;39.92;21.37
21956;BME280;11142;49.930;8.606;2022-09-12T12:12:04;100071.47;;;41.38;20.63
21956;BME280;11142;49.930;8.606;2022-09-12T12:14:39;100070.22;;;42.97;18.13
21956;BME280;11142;49.930;8.606;2022-09-12T12:17:15;100065.28;;;40.44;20.38
21956;BME280;11142;49.930;8.606;2022-09-12T12:19:45;100054.72;;;41.85;19.66
21956;BME280;11142;49.930;8.606;2022-09-12T12:22:16;100043.22;;;41.15;19.48
21956;BME280;11142;49.930;8.606;2022-09-12T12:25:05;100051.22;;;42.34;19.32
21956;BME280;11142;49.930;8.606;2022-09-12T12:27:51;100045.41;;;42.00;19.27
21956;BME280;11142;49.930;8.606;2022-09-12T12:36:40;100064.34;;;45.54;16.46
21956;BME280;11142;49.930;8.606;2022-09-12T12:48:53;100032.63;;;44.64;16.96
21956;BME280;11142;49.930;8.606;2022-09-12T12:51:33;100032.88;;;45.05;16.28
21956;BME280;11142;49.930;8.606;2022-09-12T12:54:05;100022.81;;;41.85;19.01
21956;BME280;11142;49.930;8.606;2022-09-12T12:57:00;100022.25;;;43.44;18.81
21956;BME280;11142;49.930;8.606;2022-09-12T12:59:29;100010.66;;;44.04;16.89
21956;BME280;11142;49.930;8.606;2022-09-12T13:01:58;99996.13;;;42.32;18.41
21956;BME280;11142;49.930;8.606;2022-09-12T13:04:30;99993.69;;;41.13;20.05
21956;BME280;11142;49.930;8.606;2022-09-12T13:07:02;100002.97;;;42.21;19.14
21956;BME280;11142;49.930;8.606;2022-09-12T13:09:37;100003.84;;;43.75;17.88
21956;BME280;11142;49.930;8.606;2022-09-12T13:12:17;100005.38;;;45.89;16.82
21956;BME280;11142;49.930;8.606;2022-09-12T13:14:49;100007.25;;;46.80;15.66
21956;BME280;11142;49.930;8.606;2022-09-12T13:17:23;100003.09;;;46.21;16.13
21956;BME280;11142;49.930;8.606;2022-09-12T13:20:02;99999.53;;;46.74;15.45
21956;BME280;11142;49.930;8.606;2022-09-12T13:22:52;99989.66;;;43.65;16.92
21956;BME280;11142;49.930;8.606;2022-09-12T13:25:23;99972.56;;;40.21;20.59
21956;BME280;11142;49.930;8.606;2022-09-12T13:28:03;99972.28;;;39.38;21.45
21956;BME280;11142;49.930;8.606;2022-09-12T13:30:34;99981.47;;;42.95;18.59
21956;BME280;11142;49.930;8.606;2022-09-12T13:33:17;99984.16;;;45.49;16.57
21956;BME280;11142;49.930;8.606;2022-09-12T13:36:25;99986.34;;;47.24;14.27
21956;BME280;11142;49.930;8.606;2022-09-12T13:39:13;99980.41;;;46.03;15.93
21956;BME280;11142;49.930;8.606;2022-09-12T13:41:55;99979.56;;;46.32;15.42